Seagoville's Hourly Summary for Friday, July 6, 2018
Hour Temp
(f)
RH
(%)
Solar Rad.
(MJ/m2)
Rainfall
(in)
Wind
(mph)
7/6/2018 12:00 AM 81 69 0 0 1.75
7/6/2018 1:00 AM 79 72 0 0 0.85
7/6/2018 2:00 AM 78 77 0 0 0.87
7/6/2018 3:00 AM 77 82 0 0 0.58
7/6/2018 4:00 AM 76 83 0 0 0.9
7/6/2018 5:00 AM 76 85 0 0 0.5
7/6/2018 6:00 AM 76 87 0.05 0 0.58
7/6/2018 7:00 AM 78 77 0.49 0 1.92
7/6/2018 8:00 AM 81 71 0.99 0 3.54
7/6/2018 9:00 AM 85 58 1.71 0 3.47
7/6/2018 10:00 AM 89 51 2.43 0 5.93
7/6/2018 11:00 AM 91 45 2.7 0 5.95
7/6/2018 12:00 PM 92 41 2.71 0 6.05
7/6/2018 1:00 PM 94 38 2.94 0 5.61
7/6/2018 2:00 PM 90 40 0.82 0 6.65
7/6/2018 3:00 PM 77 79 0.24 0 2.09
7/6/2018 4:00 PM 78 74 0.62 0 2.25
7/6/2018 5:00 PM 82 68 0.9 0 1.3
7/6/2018 6:00 PM 82 70 0.51 0 1.54
7/6/2018 7:00 PM 81 74 0.25 0 0.88
7/6/2018 8:00 PM 80 77 0.02 0 2.04
7/6/2018 9:00 PM 79 77 0 0 4.57
7/6/2018 10:00 PM 78 80 0 0 3.15
7/6/2018 11:00 PM 78 78 0 0 0.64
Data Summary 81 68 17.38 0.00 2.65